Time,TemperatureF,DewpointF,PressureIn,WindDirection,WindDirectionDegrees,WindSpeedMPH,WindSpeedGustMPH,Humidity,HourlyPrecipIn,Conditions,Clouds,dailyrainin,SoftwareType,DateUTC
2013-10-07 00:00:00,60.0,33.0,-100.00,ESE,120,3.0,-999.0,36,0.00,,,-99.99,,2013-10-07 07:00:00,
2013-10-07 00:42:00,60.0,33.0,-100.00,ESE,120,3.0,-999.0,36,0.00,,,-99.99,,2013-10-07 07:42:00,
2013-10-07 00:52:00,60.0,33.0,-100.00,ESE,120,3.0,-999.0,36,0.00,,,-99.99,,2013-10-07 07:52:00,
2013-10-07 01:00:00,59.0,32.0,-100.00,ESE,107,3.0,-999.0,36,0.00,,,-99.99,,2013-10-07 08:00:00,
2013-10-07 01:42:00,59.0,32.0,-100.00,ESE,107,3.0,-999.0,36,0.00,,,-99.99,,2013-10-07 08:42:00,
2013-10-07 01:52:00,59.0,32.0,-100.00,ESE,107,3.0,-999.0,36,0.00,,,-99.99,,2013-10-07 08:52:00,
2013-10-07 02:00:00,55.0,33.0,-100.00,SSW,213,2.0,-999.0,42,0.00,,,-99.99,,2013-10-07 09:00:00,
2013-10-07 02:43:00,55.0,33.0,-100.00,SSW,213,2.0,-999.0,42,0.00,,,-99.99,,2013-10-07 09:43:00,
2013-10-07 02:53:00,55.0,33.0,-100.00,SSW,213,2.0,-999.0,42,0.00,,,-99.99,,2013-10-07 09:53:00,
2013-10-07 03:00:00,56.0,33.0,-100.00,East,91,3.0,-999.0,42,0.00,,,-99.99,,2013-10-07 10:00:00,
2013-10-07 03:43:00,56.0,33.0,-100.00,East,91,3.0,-999.0,42,0.00,,,-99.99,,2013-10-07 10:43:00,
2013-10-07 03:53:00,56.0,33.0,-100.00,East,91,3.0,-999.0,42,0.00,,,-99.99,,2013-10-07 10:53:00,
2013-10-07 04:00:00,56.0,34.0,-100.00,East,93,3.0,-999.0,44,0.00,,,-99.99,,2013-10-07 11:00:00,
2013-10-07 04:42:00,56.0,34.0,-100.00,East,93,3.0,-999.0,44,0.00,,,-99.99,,2013-10-07 11:42:00,
2013-10-07 04:52:00,56.0,34.0,-100.00,East,93,3.0,-999.0,44,0.00,,,-99.99,,2013-10-07 11:52:00,
2013-10-07 05:00:00,55.0,33.0,-100.00,SE,134,2.0,-999.0,42,0.00,,,-99.99,,2013-10-07 12:00:00,
2013-10-07 05:43:00,55.0,33.0,-100.00,SE,134,2.0,-999.0,42,0.00,,,-99.99,,2013-10-07 12:43:00,
2013-10-07 05:52:00,55.0,33.0,-100.00,SE,134,2.0,-999.0,42,0.00,,,-99.99,,2013-10-07 12:52:00,
2013-10-07 06:00:00,56.0,33.0,-100.00,ESE,116,3.0,-999.0,41,0.00,,,-99.99,,2013-10-07 13:00:00,
2013-10-07 06:42:00,56.0,33.0,-100.00,ESE,116,3.0,-999.0,41,0.00,,,-99.99,,2013-10-07 13:42:00,
2013-10-07 06:52:00,56.0,33.0,-100.00,ESE,116,3.0,-999.0,41,0.00,,,-99.99,,2013-10-07 13:52:00,
2013-10-07 07:00:00,53.0,33.0,-100.00,SE,129,4.0,-999.0,46,0.00,,,-99.99,,2013-10-07 14:00:00,
2013-10-07 07:42:00,53.0,33.0,-100.00,SE,129,4.0,-999.0,46,0.00,,,-99.99,,2013-10-07 14:42:00,
2013-10-07 07:52:00,53.0,33.0,-100.00,SE,129,4.0,-999.0,46,0.00,,,-99.99,,2013-10-07 14:52:00,
2013-10-07 08:00:00,52.0,31.0,-100.00,West,260,2.0,-999.0,44,0.00,,,-99.99,,2013-10-07 15:00:00,
2013-10-07 08:43:00,52.0,31.0,-100.00,West,260,2.0,-999.0,44,0.00,,,-99.99,,2013-10-07 15:43:00,
2013-10-07 08:53:00,52.0,31.0,-100.00,West,260,2.0,-999.0,44,0.00,,,-99.99,,2013-10-07 15:53:00,
2013-10-07 09:00:00,59.0,32.0,-100.00,SSW,193,4.0,-999.0,36,0.00,,,-99.99,,2013-10-07 16:00:00,
2013-10-07 09:43:00,59.0,32.0,-100.00,SSW,193,4.0,-999.0,36,0.00,,,-99.99,,2013-10-07 16:43:00,
2013-10-07 09:53:00,59.0,32.0,-100.00,SSW,193,4.0,-999.0,36,0.00,,,-99.99,,2013-10-07 16:53:00,
2013-10-07 10:00:00,66.0,32.0,-100.00,SE,136,3.0,-999.0,28,0.00,,,-99.99,,2013-10-07 17:00:00,
2013-10-07 10:42:00,66.0,32.0,-100.00,SE,136,3.0,-999.0,28,0.00,,,-99.99,,2013-10-07 17:42:00,
2013-10-07 10:52:00,66.0,32.0,-100.00,SE,136,3.0,-999.0,28,0.00,,,-99.99,,2013-10-07 17:52:00,
2013-10-07 11:00:00,72.0,31.0,-100.00,SSW,205,4.0,-999.0,22,0.00,,,-99.99,,2013-10-07 18:00:00,
2013-10-07 11:42:00,72.0,31.0,-100.00,SSW,205,4.0,-999.0,22,0.00,,,-99.99,,2013-10-07 18:42:00,
2013-10-07 11:52:00,72.0,31.0,-100.00,SSW,205,4.0,-999.0,22,0.00,,,-99.99,,2013-10-07 18:52:00,
2013-10-07 12:00:00,75.0,31.0,-100.00,SW,221,5.0,-999.0,20,0.00,,,-99.99,,2013-10-07 19:00:00,
2013-10-07 12:42:00,75.0,31.0,-100.00,SW,221,5.0,-999.0,20,0.00,,,-99.99,,2013-10-07 19:42:00,
2013-10-07 12:52:00,75.0,31.0,-100.00,SW,221,5.0,-999.0,20,0.00,,,-99.99,,2013-10-07 19:52:00,
2013-10-07 13:00:00,76.0,33.0,-100.00,NNW,327,4.0,-999.0,20,0.00,,,-99.99,,2013-10-07 20:00:00,
2013-10-07 13:43:00,76.0,33.0,-100.00,NNW,327,4.0,-999.0,20,0.00,,,-99.99,,2013-10-07 20:43:00,
2013-10-07 13:52:00,76.0,33.0,-100.00,NNW,327,4.0,-999.0,20,0.00,,,-99.99,,2013-10-07 20:52:00,
2013-10-07 14:00:00,80.0,32.0,-100.00,NW,308,3.0,-999.0,17,0.00,,,-99.99,,2013-10-07 21:00:00,
2013-10-07 14:43:00,80.0,32.0,-100.00,NW,308,3.0,-999.0,17,0.00,,,-99.99,,2013-10-07 21:43:00,
2013-10-07 14:55:00,80.0,32.0,-100.00,NW,308,3.0,-999.0,17,0.00,,,-99.99,,2013-10-07 21:55:00,
2013-10-07 15:00:00,82.0,34.0,-100.00,WNW,285,7.0,-999.0,17,0.00,,,-99.99,,2013-10-07 22:00:00,
2013-10-07 15:43:00,82.0,34.0,-100.00,WNW,285,7.0,-999.0,17,0.00,,,-99.99,,2013-10-07 22:43:00,
2013-10-07 15:53:00,82.0,34.0,-100.00,WNW,285,7.0,-999.0,17,0.00,,,-99.99,,2013-10-07 22:53:00,
2013-10-07 16:00:00,84.0,31.0,-100.00,West,270,5.0,-999.0,14,0.00,,,-99.99,,2013-10-07 23:00:00,
2013-10-07 16:42:00,84.0,31.0,-100.00,West,270,5.0,-999.0,14,0.00,,,-99.99,,2013-10-07 23:42:00,
2013-10-07 16:52:00,84.0,31.0,-100.00,West,270,5.0,-999.0,14,0.00,,,-99.99,,2013-10-07 23:52:00,
2013-10-07 17:00:00,84.0,32.0,-100.00,NNW,337,6.0,-999.0,15,0.00,,,-99.99,,2013-10-08 00:00:00,
2013-10-07 17:42:00,84.0,32.0,-100.00,NNW,337,6.0,-999.0,15,0.00,,,-99.99,,2013-10-08 00:42:00,
2013-10-07 17:52:00,84.0,32.0,-100.00,NNW,337,6.0,-999.0,15,0.00,,,-99.99,,2013-10-08 00:52:00,
2013-10-07 18:00:00,84.0,31.0,-100.00,NW,311,7.0,-999.0,15,0.00,,,-99.99,,2013-10-08 01:00:00,
2013-10-07 18:42:00,84.0,31.0,-100.00,NW,311,7.0,-999.0,15,0.00,,,-99.99,,2013-10-08 01:42:00,
2013-10-07 18:52:00,84.0,31.0,-100.00,NW,311,7.0,-999.0,15,0.00,,,-99.99,,2013-10-08 01:52:00,
2013-10-07 19:00:00,79.0,36.0,-100.00,NNW,334,2.0,-999.0,20,0.00,,,-99.99,,2013-10-08 02:00:00,
2013-10-07 19:42:00,79.0,36.0,-100.00,NNW,334,2.0,-999.0,20,0.00,,,-99.99,,2013-10-08 02:42:00,
2013-10-07 19:52:00,79.0,36.0,-100.00,NNW,334,2.0,-999.0,20,0.00,,,-99.99,,2013-10-08 02:52:00,
2013-10-07 20:00:00,70.0,39.0,-100.00,SSE,154,2.0,-999.0,32,0.00,,,-99.99,,2013-10-08 03:00:00,
2013-10-07 20:44:00,70.0,39.0,-100.00,SSE,154,2.0,-999.0,32,0.00,,,-99.99,,2013-10-08 03:44:00,
2013-10-07 20:55:00,70.0,39.0,-100.00,SSE,154,2.0,-999.0,32,0.00,,,-99.99,,2013-10-08 03:55:00,
2013-10-07 21:00:00,64.0,41.0,-100.00,SSE,158,4.0,-999.0,43,0.00,,,-99.99,,2013-10-08 04:00:00,
2013-10-07 21:43:00,64.0,41.0,-100.00,SSE,158,4.0,-999.0,43,0.00,,,-99.99,,2013-10-08 04:43:00,
2013-10-07 21:53:00,64.0,41.0,-100.00,SSE,158,4.0,-999.0,43,0.00,,,-99.99,,2013-10-08 04:53:00,
2013-10-07 22:00:00,62.0,37.0,-100.00,SE,128,5.0,-999.0,39,0.00,,,-99.99,,2013-10-08 05:00:00,
2013-10-07 22:42:00,62.0,37.0,-100.00,SE,128,5.0,-999.0,39,0.00,,,-99.99,,2013-10-08 05:42:00,
2013-10-07 22:53:00,62.0,37.0,-100.00,SE,128,5.0,-999.0,39,0.00,,,-99.99,,2013-10-08 05:53:00,
2013-10-07 23:00:00,60.0,36.0,-100.00,ESE,111,4.0,-999.0,42,0.00,,,-99.99,,2013-10-08 06:00:00,
2013-10-07 23:42:00,60.0,36.0,-100.00,ESE,111,4.0,-999.0,42,0.00,,,-99.99,,2013-10-08 06:42:00,
2013-10-07 23:52:00,60.0,36.0,-100.00,ESE,111,4.0,-999.0,42,0.00,,,-99.99,,2013-10-08 06:52:00,